sensor_id;sensor_type;location;lat;lon;timestamp;P1;durP1;ratioP1;P2;durP2;ratioP2
36989;SDS011;22898;52.102;5.776;2023-05-21T00:01:31;3.33;;;1.63;;
36989;SDS011;22898;52.102;5.776;2023-05-21T00:03:56;0.75;;;0.75;;
36989;SDS011;22898;52.102;5.776;2023-05-21T00:06:23;1.67;;;1.10;;
36989;SDS011;22898;52.102;5.776;2023-05-21T00:08:49;1.75;;;1.23;;
36989;SDS011;22898;52.102;5.776;2023-05-21T00:11:14;2.58;;;1.52;;
36989;SDS011;22898;52.102;5.776;2023-05-21T00:13:40;0.90;;;0.80;;
36989;SDS011;22898;52.102;5.776;2023-05-21T00:16:06;1.05;;;0.95;;
36989;SDS011;22898;52.102;5.776;2023-05-21T00:18:32;1.70;;;1.60;;
36989;SDS011;22898;52.102;5.776;2023-05-21T00:20:58;3.17;;;1.40;;
36989;SDS011;22898;52.102;5.776;2023-05-21T00:23:24;1.45;;;0.98;;
36989;SDS011;22898;52.102;5.776;2023-05-21T00:25:51;1.58;;;1.00;;
36989;SDS011;22898;52.102;5.776;2023-05-21T00:28:16;1.83;;;1.25;;
36989;SDS011;22898;52.102;5.776;2023-05-21T00:30:42;2.55;;;1.45;;
36989;SDS011;22898;52.102;5.776;2023-05-21T00:33:08;2.03;;;1.30;;
36989;SDS011;22898;52.102;5.776;2023-05-21T00:35:34;4.03;;;1.27;;
36989;SDS011;22898;52.102;5.776;2023-05-21T00:38:00;2.60;;;1.67;;
36989;SDS011;22898;52.102;5.776;2023-05-21T00:40:25;3.95;;;1.30;;
36989;SDS011;22898;52.102;5.776;2023-05-21T00:42:52;1.63;;;1.20;;
36989;SDS011;22898;52.102;5.776;2023-05-21T00:45:21;3.88;;;1.42;;
36989;SDS011;22898;52.102;5.776;2023-05-21T00:47:48;1.30;;;1.20;;
36989;SDS011;22898;52.102;5.776;2023-05-21T00:50:18;1.67;;;1.17;;
36989;SDS011;22898;52.102;5.776;2023-05-21T00:52:44;2.03;;;1.42;;
36989;SDS011;22898;52.102;5.776;2023-05-21T00:55:10;2.17;;;1.35;;
36989;SDS011;22898;52.102;5.776;2023-05-21T00:57:36;2.17;;;1.30;;
36989;SDS011;22898;52.102;5.776;2023-05-21T01:00:03;7.15;;;1.38;;
36989;SDS011;22898;52.102;5.776;2023-05-21T01:02:33;2.17;;;1.67;;
36989;SDS011;22898;52.102;5.776;2023-05-21T01:05:00;1.30;;;1.20;;
36989;SDS011;22898;52.102;5.776;2023-05-21T01:07:28;1.30;;;1.20;;
36989;SDS011;22898;52.102;5.776;2023-05-21T01:09:54;1.10;;;1.10;;
36989;SDS011;22898;52.102;5.776;2023-05-21T01:12:19;1.90;;;1.60;;
36989;SDS011;22898;52.102;5.776;2023-05-21T01:14:47;2.00;;;1.58;;
36989;SDS011;22898;52.102;5.776;2023-05-21T01:17:13;1.33;;;1.20;;
36989;SDS011;22898;52.102;5.776;2023-05-21T01:19:39;1.95;;;1.48;;
36989;SDS011;22898;52.102;5.776;2023-05-21T01:22:06;7.68;;;1.65;;
36989;SDS011;22898;52.102;5.776;2023-05-21T01:24:32;1.13;;;1.02;;
36989;SDS011;22898;52.102;5.776;2023-05-21T01:26:59;2.10;;;1.33;;
36989;SDS011;22898;52.102;5.776;2023-05-21T01:29:25;1.85;;;1.25;;
36989;SDS011;22898;52.102;5.776;2023-05-21T01:34:31;1.42;;;1.25;;
36989;SDS011;22898;52.102;5.776;2023-05-21T01:37:13;2.05;;;1.45;;
36989;SDS011;22898;52.102;5.776;2023-05-21T01:39:46;1.92;;;1.33;;
36989;SDS011;22898;52.102;5.776;2023-05-21T01:42:23;1.40;;;1.30;;
36989;SDS011;22898;52.102;5.776;2023-05-21T01:44:51;2.60;;;1.30;;
36989;SDS011;22898;52.102;5.776;2023-05-21T01:47:21;2.72;;;1.27;;
36989;SDS011;22898;52.102;5.776;2023-05-21T01:49:49;1.17;;;1.05;;
36989;SDS011;22898;52.102;5.776;2023-05-21T01:52:15;3.00;;;1.23;;
36989;SDS011;22898;52.102;5.776;2023-05-21T01:54:41;3.05;;;1.25;;
36989;SDS011;22898;52.102;5.776;2023-05-21T01:57:06;3.58;;;2.22;;
36989;SDS011;22898;52.102;5.776;2023-05-21T01:59:32;2.05;;;1.50;;
36989;SDS011;22898;52.102;5.776;2023-05-21T02:01:58;1.52;;;1.17;;
36989;SDS011;22898;52.102;5.776;2023-05-21T02:04:23;2.20;;;1.30;;
36989;SDS011;22898;52.102;5.776;2023-05-21T02:06:49;1.52;;;1.20;;
36989;SDS011;22898;52.102;5.776;2023-05-21T02:09:14;2.00;;;1.73;;
36989;SDS011;22898;52.102;5.776;2023-05-21T02:11:40;1.38;;;1.05;;
36989;SDS011;22898;52.102;5.776;2023-05-21T02:14:05;2.38;;;1.67;;
36989;SDS011;22898;52.102;5.776;2023-05-21T02:16:34;2.35;;;1.65;;
36989;SDS011;22898;52.102;5.776;2023-05-21T02:18:59;1.52;;;1.30;;
36989;SDS011;22898;52.102;5.776;2023-05-21T02:21:25;2.05;;;1.58;;
36989;SDS011;22898;52.102;5.776;2023-05-21T02:23:51;1.73;;;1.45;;
36989;SDS011;22898;52.102;5.776;2023-05-21T02:26:16;1.88;;;1.27;;
36989;SDS011;22898;52.102;5.776;2023-05-21T02:28:42;2.42;;;1.83;;
36989;SDS011;22898;52.102;5.776;2023-05-21T02:31:08;1.35;;;1.05;;
36989;SDS011;22898;52.102;5.776;2023-05-21T02:33:33;2.90;;;1.55;;
36989;SDS011;22898;52.102;5.776;2023-05-21T02:35:59;1.45;;;1.30;;
36989;SDS011;22898;52.102;5.776;2023-05-21T02:38:24;3.33;;;1.92;;
36989;SDS011;22898;52.102;5.776;2023-05-21T02:40:50;2.05;;;1.30;;
36989;SDS011;22898;52.102;5.776;2023-05-21T02:43:16;2.42;;;1.58;;
36989;SDS011;22898;52.102;5.776;2023-05-21T02:45:42;2.15;;;1.55;;
36989;SDS011;22898;52.102;5.776;2023-05-21T02:48:07;1.83;;;1.38;;
36989;SDS011;22898;52.102;5.776;2023-05-21T02:50:33;1.73;;;1.40;;
36989;SDS011;22898;52.102;5.776;2023-05-21T02:52:58;2.10;;;1.42;;
36989;SDS011;22898;52.102;5.776;2023-05-21T02:55:24;2.45;;;1.17;;
36989;SDS011;22898;52.102;5.776;2023-05-21T02:57:50;3.08;;;1.58;;
36989;SDS011;22898;52.102;5.776;2023-05-21T03:00:15;3.15;;;2.22;;
36989;SDS011;22898;52.102;5.776;2023-05-21T03:02:41;1.77;;;1.60;;
36989;SDS011;22898;52.102;5.776;2023-05-21T03:05:07;3.58;;;1.38;;
36989;SDS011;22898;52.102;5.776;2023-05-21T03:07:33;1.75;;;1.27;;
36989;SDS011;22898;52.102;5.776;2023-05-21T03:09:58;1.77;;;1.40;;
36989;SDS011;22898;52.102;5.776;2023-05-21T03:12:24;1.27;;;1.10;;
36989;SDS011;22898;52.102;5.776;2023-05-21T03:14:50;3.65;;;1.42;;
36989;SDS011;22898;52.102;5.776;2023-05-21T03:17:16;2.15;;;1.80;;
36989;SDS011;22898;52.102;5.776;2023-05-21T03:19:42;6.50;;;2.45;;
36989;SDS011;22898;52.102;5.776;2023-05-21T03:22:08;3.33;;;1.95;;
36989;SDS011;22898;52.102;5.776;2023-05-21T03:24:36;2.38;;;1.52;;
36989;SDS011;22898;52.102;5.776;2023-05-21T03:27:05;2.17;;;1.15;;
36989;SDS011;22898;52.102;5.776;2023-05-21T03:29:32;2.45;;;1.77;;
36989;SDS011;22898;52.102;5.776;2023-05-21T03:31:57;2.17;;;1.23;;
36989;SDS011;22898;52.102;5.776;2023-05-21T03:34:24;2.22;;;1.55;;
36989;SDS011;22898;52.102;5.776;2023-05-21T03:36:49;1.70;;;1.30;;
36989;SDS011;22898;52.102;5.776;2023-05-21T03:39:15;2.03;;;1.30;;
36989;SDS011;22898;52.102;5.776;2023-05-21T03:41:41;2.75;;;1.58;;
36989;SDS011;22898;52.102;5.776;2023-05-21T03:44:06;1.95;;;1.60;;
36989;SDS011;22898;52.102;5.776;2023-05-21T03:46:32;1.83;;;1.42;;
36989;SDS011;22898;52.102;5.776;2023-05-21T03:48:58;3.58;;;1.92;;
36989;SDS011;22898;52.102;5.776;2023-05-21T03:51:23;2.70;;;1.40;;
36989;SDS011;22898;52.102;5.776;2023-05-21T03:53:49;2.30;;;1.55;;
36989;SDS011;22898;52.102;5.776;2023-05-21T03:56:15;1.45;;;1.17;;
36989;SDS011;22898;52.102;5.776;2023-05-21T03:58:41;1.73;;;1.48;;
36989;SDS011;22898;52.102;5.776;2023-05-21T04:01:07;1.90;;;1.50;;
36989;SDS011;22898;52.102;5.776;2023-05-21T04:03:33;2.75;;;1.73;;
36989;SDS011;22898;52.102;5.776;2023-05-21T04:06:02;2.70;;;1.80;;
36989;SDS011;22898;52.102;5.776;2023-05-21T04:08:29;1.50;;;1.38;;
36989;SDS011;22898;52.102;5.776;2023-05-21T04:10:55;2.03;;;1.55;;
36989;SDS011;22898;52.102;5.776;2023-05-21T04:13:21;1.35;;;1.23;;
36989;SDS011;22898;52.102;5.776;2023-05-21T04:15:46;2.75;;;1.40;;
36989;SDS011;22898;52.102;5.776;2023-05-21T04:18:12;2.40;;;1.60;;
36989;SDS011;22898;52.102;5.776;2023-05-21T04:20:40;2.58;;;1.50;;
36989;SDS011;22898;52.102;5.776;2023-05-21T04:23:06;2.35;;;1.30;;
36989;SDS011;22898;52.102;5.776;2023-05-21T04:25:32;1.33;;;1.00;;
36989;SDS011;22898;52.102;5.776;2023-05-21T04:27:57;1.25;;;1.15;;
36989;SDS011;22898;52.102;5.776;2023-05-21T04:30:23;2.75;;;1.20;;
36989;SDS011;22898;52.102;5.776;2023-05-21T04:32:49;1.75;;;1.50;;
36989;SDS011;22898;52.102;5.776;2023-05-21T04:35:16;3.05;;;1.80;;
36989;SDS011;22898;52.102;5.776;2023-05-21T04:37:42;2.78;;;1.92;;
36989;SDS011;22898;52.102;5.776;2023-05-21T04:40:10;1.63;;;1.50;;
36989;SDS011;22898;52.102;5.776;2023-05-21T04:42:36;2.45;;;1.48;;
36989;SDS011;22898;52.102;5.776;2023-05-21T04:45:03;3.17;;;1.83;;
36989;SDS011;22898;52.102;5.776;2023-05-21T04:47:30;1.92;;;1.25;;
36989;SDS011;22898;52.102;5.776;2023-05-21T04:49:59;9.52;;;1.42;;
36989;SDS011;22898;52.102;5.776;2023-05-21T04:52:25;2.85;;;1.50;;
36989;SDS011;22898;52.102;5.776;2023-05-21T04:54:51;4.18;;;1.92;;
36989;SDS011;22898;52.102;5.776;2023-05-21T04:57:18;1.23;;;1.13;;
36989;SDS011;22898;52.102;5.776;2023-05-21T04:59:43;3.13;;;2.20;;
36989;SDS011;22898;52.102;5.776;2023-05-21T05:02:09;2.15;;;1.50;;
36989;SDS011;22898;52.102;5.776;2023-05-21T05:04:34;1.83;;;1.67;;
36989;SDS011;22898;52.102;5.776;2023-05-21T05:07:00;2.28;;;1.75;;
36989;SDS011;22898;52.102;5.776;2023-05-21T05:09:25;2.63;;;1.10;;
36989;SDS011;22898;52.102;5.776;2023-05-21T05:11:51;1.50;;;1.40;;
36989;SDS011;22898;52.102;5.776;2023-05-21T05:14:16;2.05;;;1.63;;
36989;SDS011;22898;52.102;5.776;2023-05-21T05:16:42;2.08;;;1.35;;
36989;SDS011;22898;52.102;5.776;2023-05-21T05:19:08;1.58;;;1.20;;
36989;SDS011;22898;52.102;5.776;2023-05-21T05:21:34;3.40;;;2.05;;
36989;SDS011;22898;52.102;5.776;2023-05-21T05:23:59;4.05;;;1.23;;
36989;SDS011;22898;52.102;5.776;2023-05-21T05:26:25;2.00;;;1.60;;
36989;SDS011;22898;52.102;5.776;2023-05-21T05:28:50;5.88;;;2.17;;
36989;SDS011;22898;52.102;5.776;2023-05-21T05:31:16;2.95;;;1.80;;
36989;SDS011;22898;52.102;5.776;2023-05-21T05:33:41;3.40;;;1.55;;
36989;SDS011;22898;52.102;5.776;2023-05-21T05:36:07;1.85;;;1.65;;
36989;SDS011;22898;52.102;5.776;2023-05-21T05:38:33;2.08;;;1.25;;
36989;SDS011;22898;52.102;5.776;2023-05-21T05:40:59;2.33;;;1.65;;
36989;SDS011;22898;52.102;5.776;2023-05-21T05:43:24;2.38;;;2.05;;
36989;SDS011;22898;52.102;5.776;2023-05-21T05:45:50;2.00;;;1.30;;
36989;SDS011;22898;52.102;5.776;2023-05-21T05:48:16;2.50;;;1.27;;
36989;SDS011;22898;52.102;5.776;2023-05-21T05:50:41;2.28;;;1.70;;
36989;SDS011;22898;52.102;5.776;2023-05-21T05:53:07;1.77;;;1.48;;
36989;SDS011;22898;52.102;5.776;2023-05-21T05:55:33;2.42;;;1.70;;
36989;SDS011;22898;52.102;5.776;2023-05-21T05:57:58;3.78;;;2.17;;
36989;SDS011;22898;52.102;5.776;2023-05-21T06:00:24;2.17;;;1.63;;
36989;SDS011;22898;52.102;5.776;2023-05-21T06:02:50;2.30;;;1.67;;
36989;SDS011;22898;52.102;5.776;2023-05-21T06:05:15;4.53;;;2.28;;
36989;SDS011;22898;52.102;5.776;2023-05-21T06:07:41;3.35;;;2.22;;
36989;SDS011;22898;52.102;5.776;2023-05-21T06:10:06;2.40;;;1.70;;
36989;SDS011;22898;52.102;5.776;2023-05-21T06:12:33;4.95;;;2.72;;
36989;SDS011;22898;52.102;5.776;2023-05-21T06:14:59;2.60;;;1.70;;
36989;SDS011;22898;52.102;5.776;2023-05-21T06:17:25;2.20;;;1.63;;
36989;SDS011;22898;52.102;5.776;2023-05-21T06:19:51;3.25;;;1.98;;
36989;SDS011;22898;52.102;5.776;2023-05-21T06:22:16;2.25;;;1.70;;
36989;SDS011;22898;52.102;5.776;2023-05-21T06:24:42;2.28;;;1.92;;
36989;SDS011;22898;52.102;5.776;2023-05-21T06:27:07;2.75;;;1.83;;
36989;SDS011;22898;52.102;5.776;2023-05-21T06:29:33;2.70;;;2.00;;
36989;SDS011;22898;52.102;5.776;2023-05-21T06:31:59;2.55;;;1.83;;
36989;SDS011;22898;52.102;5.776;2023-05-21T06:34:25;2.83;;;2.00;;
36989;SDS011;22898;52.102;5.776;2023-05-21T06:36:51;2.40;;;1.85;;
36989;SDS011;22898;52.102;5.776;2023-05-21T06:39:16;2.95;;;1.95;;
36989;SDS011;22898;52.102;5.776;2023-05-21T06:41:42;2.28;;;1.80;;
36989;SDS011;22898;52.102;5.776;2023-05-21T06:44:08;3.80;;;1.90;;
36989;SDS011;22898;52.102;5.776;2023-05-21T06:46:33;4.82;;;1.83;;
36989;SDS011;22898;52.102;5.776;2023-05-21T06:49:00;3.75;;;1.92;;
36989;SDS011;22898;52.102;5.776;2023-05-21T06:51:25;3.25;;;2.03;;
36989;SDS011;22898;52.102;5.776;2023-05-21T06:53:51;4.63;;;2.63;;
36989;SDS011;22898;52.102;5.776;2023-05-21T06:56:17;1.50;;;1.40;;
36989;SDS011;22898;52.102;5.776;2023-05-21T06:58:42;2.55;;;1.73;;
36989;SDS011;22898;52.102;5.776;2023-05-21T07:01:08;2.90;;;1.77;;
36989;SDS011;22898;52.102;5.776;2023-05-21T07:03:35;2.08;;;1.70;;
36989;SDS011;22898;52.102;5.776;2023-05-21T07:06:01;4.38;;;2.40;;
36989;SDS011;22898;52.102;5.776;2023-05-21T07:08:26;3.42;;;1.88;;
36989;SDS011;22898;52.102;5.776;2023-05-21T07:10:52;2.00;;;1.70;;
36989;SDS011;22898;52.102;5.776;2023-05-21T07:13:18;2.67;;;2.03;;
36989;SDS011;22898;52.102;5.776;2023-05-21T07:15:43;3.60;;;1.55;;
36989;SDS011;22898;52.102;5.776;2023-05-21T07:18:09;2.97;;;2.00;;
36989;SDS011;22898;52.102;5.776;2023-05-21T07:20:35;2.92;;;2.17;;
36989;SDS011;22898;52.102;5.776;2023-05-21T07:23:01;2.78;;;1.65;;
36989;SDS011;22898;52.102;5.776;2023-05-21T07:25:26;3.30;;;1.95;;
36989;SDS011;22898;52.102;5.776;2023-05-21T07:27:52;2.35;;;1.73;;
36989;SDS011;22898;52.102;5.776;2023-05-21T07:30:17;2.85;;;1.90;;
36989;SDS011;22898;52.102;5.776;2023-05-21T07:32:43;2.95;;;2.15;;
36989;SDS011;22898;52.102;5.776;2023-05-21T07:35:09;5.10;;;2.15;;
36989;SDS011;22898;52.102;5.776;2023-05-21T07:37:35;4.55;;;2.15;;
36989;SDS011;22898;52.102;5.776;2023-05-21T07:40:00;2.72;;;1.80;;
36989;SDS011;22898;52.102;5.776;2023-05-21T07:42:26;2.63;;;1.67;;
36989;SDS011;22898;52.102;5.776;2023-05-21T07:44:51;4.32;;;2.03;;
36989;SDS011;22898;52.102;5.776;2023-05-21T07:47:17;2.40;;;1.77;;
36989;SDS011;22898;52.102;5.776;2023-05-21T07:49:42;1.60;;;1.48;;
36989;SDS011;22898;52.102;5.776;2023-05-21T07:52:08;3.53;;;1.70;;
36989;SDS011;22898;52.102;5.776;2023-05-21T07:54:34;3.10;;;1.90;;
36989;SDS011;22898;52.102;5.776;2023-05-21T07:56:59;3.58;;;2.25;;
36989;SDS011;22898;52.102;5.776;2023-05-21T07:59:27;2.45;;;1.52;;
36989;SDS011;22898;52.102;5.776;2023-05-21T08:01:52;2.92;;;2.00;;
36989;SDS011;22898;52.102;5.776;2023-05-21T08:04:18;2.60;;;2.05;;
36989;SDS011;22898;52.102;5.776;2023-05-21T08:06:44;2.95;;;1.85;;
36989;SDS011;22898;52.102;5.776;2023-05-21T08:09:09;2.58;;;1.63;;
36989;SDS011;22898;52.102;5.776;2023-05-21T08:11:36;1.80;;;1.45;;
36989;SDS011;22898;52.102;5.776;2023-05-21T08:14:01;5.30;;;2.55;;
36989;SDS011;22898;52.102;5.776;2023-05-21T08:16:27;2.25;;;1.60;;
36989;SDS011;22898;52.102;5.776;2023-05-21T08:18:53;2.72;;;1.98;;
36989;SDS011;22898;52.102;5.776;2023-05-21T08:21:18;3.63;;;2.10;;
36989;SDS011;22898;52.102;5.776;2023-05-21T08:23:44;1.65;;;1.33;;
36989;SDS011;22898;52.102;5.776;2023-05-21T08:26:09;2.50;;;2.03;;
36989;SDS011;22898;52.102;5.776;2023-05-21T08:28:38;2.63;;;1.70;;
36989;SDS011;22898;52.102;5.776;2023-05-21T08:31:04;4.75;;;2.85;;
36989;SDS011;22898;52.102;5.776;2023-05-21T08:33:30;2.60;;;1.58;;
36989;SDS011;22898;52.102;5.776;2023-05-21T08:35:55;3.58;;;2.67;;
36989;SDS011;22898;52.102;5.776;2023-05-21T08:38:21;2.97;;;2.28;;
36989;SDS011;22898;52.102;5.776;2023-05-21T08:40:46;2.92;;;1.70;;
36989;SDS011;22898;52.102;5.776;2023-05-21T08:43:14;2.28;;;1.70;;
36989;SDS011;22898;52.102;5.776;2023-05-21T08:45:41;3.67;;;1.42;;
36989;SDS011;22898;52.102;5.776;2023-05-21T08:48:09;2.22;;;1.83;;
36989;SDS011;22898;52.102;5.776;2023-05-21T08:50:38;2.58;;;1.80;;
36989;SDS011;22898;52.102;5.776;2023-05-21T08:53:04;3.20;;;1.88;;
36989;SDS011;22898;52.102;5.776;2023-05-21T08:55:30;2.30;;;1.75;;
36989;SDS011;22898;52.102;5.776;2023-05-21T08:57:57;2.60;;;1.85;;
36989;SDS011;22898;52.102;5.776;2023-05-21T09:00:22;2.25;;;1.77;;
36989;SDS011;22898;52.102;5.776;2023-05-21T09:02:48;4.25;;;2.00;;
36989;SDS011;22898;52.102;5.776;2023-05-21T09:05:15;3.80;;;1.90;;
36989;SDS011;22898;52.102;5.776;2023-05-21T09:07:49;2.85;;;2.03;;
36989;SDS011;22898;52.102;5.776;2023-05-21T09:10:34;4.00;;;2.63;;
36989;SDS011;22898;52.102;5.776;2023-05-21T09:13:02;2.55;;;1.90;;
36989;SDS011;22898;52.102;5.776;2023-05-21T09:15:29;4.43;;;2.63;;
36989;SDS011;22898;52.102;5.776;2023-05-21T09:17:55;3.33;;;2.30;;
36989;SDS011;22898;52.102;5.776;2023-05-21T09:20:24;2.97;;;2.13;;
36989;SDS011;22898;52.102;5.776;2023-05-21T09:22:51;3.20;;;1.88;;
36989;SDS011;22898;52.102;5.776;2023-05-21T09:25:24;3.42;;;2.20;;
36989;SDS011;22898;52.102;5.776;2023-05-21T09:27:54;3.88;;;2.20;;
36989;SDS011;22898;52.102;5.776;2023-05-21T09:30:20;4.82;;;2.17;;
36989;SDS011;22898;52.102;5.776;2023-05-21T09:32:51;6.65;;;3.03;;
36989;SDS011;22898;52.102;5.776;2023-05-21T09:35:18;4.97;;;1.88;;
36989;SDS011;22898;52.102;5.776;2023-05-21T09:37:46;6.03;;;2.60;;
36989;SDS011;22898;52.102;5.776;2023-05-21T09:40:16;3.03;;;2.10;;
36989;SDS011;22898;52.102;5.776;2023-05-21T09:42:52;2.60;;;2.00;;
36989;SDS011;22898;52.102;5.776;2023-05-21T09:45:19;3.15;;;2.58;;
36989;SDS011;22898;52.102;5.776;2023-05-21T09:47:54;2.45;;;1.80;;
36989;SDS011;22898;52.102;5.776;2023-05-21T09:50:24;4.03;;;2.42;;
36989;SDS011;22898;52.102;5.776;2023-05-21T09:52:54;4.50;;;2.35;;
36989;SDS011;22898;52.102;5.776;2023-05-21T09:55:24;1.95;;;1.45;;
36989;SDS011;22898;52.102;5.776;2023-05-21T09:57:50;3.92;;;2.30;;
36989;SDS011;22898;52.102;5.776;2023-05-21T10:00:20;3.75;;;2.15;;
36989;SDS011;22898;52.102;5.776;2023-05-21T10:02:49;3.38;;;2.33;;
36989;SDS011;22898;52.102;5.776;2023-05-21T10:05:18;2.45;;;2.00;;
36989;SDS011;22898;52.102;5.776;2023-05-21T10:07:49;5.88;;;2.63;;
36989;SDS011;22898;52.102;5.776;2023-05-21T10:10:16;3.45;;;2.10;;
36989;SDS011;22898;52.102;5.776;2023-05-21T10:12:44;4.28;;;2.40;;
36989;SDS011;22898;52.102;5.776;2023-05-21T10:15:14;3.90;;;2.33;;
36989;SDS011;22898;52.102;5.776;2023-05-21T10:17:44;5.38;;;2.28;;
36989;SDS011;22898;52.102;5.776;2023-05-21T10:20:12;4.15;;;2.25;;
36989;SDS011;22898;52.102;5.776;2023-05-21T10:22:38;6.15;;;2.38;;
36989;SDS011;22898;52.102;5.776;2023-05-21T10:25:07;4.03;;;2.45;;
36989;SDS011;22898;52.102;5.776;2023-05-21T10:27:34;7.28;;;2.80;;
36989;SDS011;22898;52.102;5.776;2023-05-21T10:30:00;5.45;;;2.90;;
36989;SDS011;22898;52.102;5.776;2023-05-21T10:32:26;5.95;;;2.63;;
36989;SDS011;22898;52.102;5.776;2023-05-21T10:34:52;6.47;;;3.28;;
36989;SDS011;22898;52.102;5.776;2023-05-21T10:37:19;5.32;;;3.40;;
36989;SDS011;22898;52.102;5.776;2023-05-21T10:39:48;7.00;;;3.53;;
36989;SDS011;22898;52.102;5.776;2023-05-21T10:42:17;4.03;;;3.00;;
36989;SDS011;22898;52.102;5.776;2023-05-21T10:47:34;3.58;;;2.45;;
36989;SDS011;22898;52.102;5.776;2023-05-21T10:50:29;6.32;;;2.92;;
36989;SDS011;22898;52.102;5.776;2023-05-21T10:53:22;3.78;;;2.60;;
36989;SDS011;22898;52.102;5.776;2023-05-21T10:56:14;5.13;;;2.75;;
36989;SDS011;22898;52.102;5.776;2023-05-21T10:58:47;3.97;;;2.53;;
36989;SDS011;22898;52.102;5.776;2023-05-21T11:01:32;4.18;;;2.75;;
36989;SDS011;22898;52.102;5.776;2023-05-21T11:04:01;4.45;;;2.60;;
36989;SDS011;22898;52.102;5.776;2023-05-21T11:06:30;4.80;;;2.67;;
36989;SDS011;22898;52.102;5.776;2023-05-21T11:08:56;4.18;;;2.78;;
36989;SDS011;22898;52.102;5.776;2023-05-21T11:11:38;6.55;;;3.03;;
36989;SDS011;22898;52.102;5.776;2023-05-21T11:14:27;4.93;;;3.63;;
36989;SDS011;22898;52.102;5.776;2023-05-21T11:16:58;3.75;;;2.45;;
36989;SDS011;22898;52.102;5.776;2023-05-21T11:19:32;3.55;;;2.50;;
36989;SDS011;22898;52.102;5.776;2023-05-21T11:22:06;6.05;;;4.13;;
36989;SDS011;22898;52.102;5.776;2023-05-21T11:24:35;16.10;;;2.97;;
36989;SDS011;22898;52.102;5.776;2023-05-21T11:27:02;4.07;;;2.70;;
36989;SDS011;22898;52.102;5.776;2023-05-21T11:29:38;4.57;;;2.15;;
36989;SDS011;22898;52.102;5.776;2023-05-21T11:32:06;5.05;;;3.08;;
36989;SDS011;22898;52.102;5.776;2023-05-21T11:34:43;3.67;;;2.40;;
36989;SDS011;22898;52.102;5.776;2023-05-21T11:39:42;5.30;;;3.42;;
36989;SDS011;22898;52.102;5.776;2023-05-21T11:42:11;3.92;;;2.50;;
36989;SDS011;22898;52.102;5.776;2023-05-21T11:44:44;4.38;;;2.67;;
36989;SDS011;22898;52.102;5.776;2023-05-21T11:47:14;4.32;;;2.72;;
36989;SDS011;22898;52.102;5.776;2023-05-21T11:49:41;3.70;;;2.70;;
36989;SDS011;22898;52.102;5.776;2023-05-21T11:52:08;3.33;;;2.30;;
36989;SDS011;22898;52.102;5.776;2023-05-21T11:54:42;4.05;;;2.67;;
36989;SDS011;22898;52.102;5.776;2023-05-21T11:57:10;4.22;;;2.22;;
36989;SDS011;22898;52.102;5.776;2023-05-21T11:59:40;4.65;;;2.90;;
36989;SDS011;22898;52.102;5.776;2023-05-21T12:02:06;3.70;;;2.05;;
36989;SDS011;22898;52.102;5.776;2023-05-21T12:04:33;4.15;;;2.67;;
36989;SDS011;22898;52.102;5.776;2023-05-21T12:07:02;4.90;;;2.80;;
36989;SDS011;22898;52.102;5.776;2023-05-21T12:09:37;4.10;;;2.35;;
36989;SDS011;22898;52.102;5.776;2023-05-21T12:12:03;3.97;;;2.78;;
36989;SDS011;22898;52.102;5.776;2023-05-21T12:14:30;3.72;;;2.25;;
36989;SDS011;22898;52.102;5.776;2023-05-21T12:16:56;4.32;;;2.72;;
36989;SDS011;22898;52.102;5.776;2023-05-21T12:19:22;4.10;;;2.90;;
36989;SDS011;22898;52.102;5.776;2023-05-21T12:21:47;4.60;;;2.97;;
36989;SDS011;22898;52.102;5.776;2023-05-21T12:24:14;4.88;;;2.50;;
36989;SDS011;22898;52.102;5.776;2023-05-21T12:26:40;5.07;;;2.25;;
36989;SDS011;22898;52.102;5.776;2023-05-21T12:29:08;5.07;;;2.35;;
36989;SDS011;22898;52.102;5.776;2023-05-21T12:31:45;5.88;;;3.33;;
36989;SDS011;22898;52.102;5.776;2023-05-21T12:34:12;3.10;;;2.28;;
36989;SDS011;22898;52.102;5.776;2023-05-21T12:36:39;4.35;;;2.92;;
36989;SDS011;22898;52.102;5.776;2023-05-21T12:39:12;5.45;;;2.78;;
36989;SDS011;22898;52.102;5.776;2023-05-21T12:41:38;4.85;;;2.83;;
36989;SDS011;22898;52.102;5.776;2023-05-21T12:44:04;3.80;;;3.00;;
36989;SDS011;22898;52.102;5.776;2023-05-21T12:46:32;4.82;;;2.70;;
36989;SDS011;22898;52.102;5.776;2023-05-21T12:48:58;3.90;;;2.40;;
36989;SDS011;22898;52.102;5.776;2023-05-21T12:51:24;7.88;;;3.03;;
36989;SDS011;22898;52.102;5.776;2023-05-21T12:53:50;3.35;;;2.35;;
36989;SDS011;22898;52.102;5.776;2023-05-21T12:56:15;4.25;;;2.47;;
36989;SDS011;22898;52.102;5.776;2023-05-21T12:58:41;4.65;;;2.65;;
36989;SDS011;22898;52.102;5.776;2023-05-21T13:01:07;4.22;;;2.72;;
36989;SDS011;22898;52.102;5.776;2023-05-21T13:03:34;7.03;;;3.35;;
36989;SDS011;22898;52.102;5.776;2023-05-21T13:06:01;4.28;;;2.80;;
36989;SDS011;22898;52.102;5.776;2023-05-21T13:08:26;6.45;;;3.33;;
36989;SDS011;22898;52.102;5.776;2023-05-21T13:10:52;4.95;;;2.83;;
36989;SDS011;22898;52.102;5.776;2023-05-21T13:13:18;4.85;;;3.22;;
36989;SDS011;22898;52.102;5.776;2023-05-21T13:15:44;6.60;;;3.92;;
36989;SDS011;22898;52.102;5.776;2023-05-21T13:18:09;4.97;;;3.28;;
36989;SDS011;22898;52.102;5.776;2023-05-21T13:20:36;6.00;;;3.10;;
36989;SDS011;22898;52.102;5.776;2023-05-21T13:23:02;5.05;;;2.53;;
36989;SDS011;22898;52.102;5.776;2023-05-21T13:25:29;4.57;;;2.85;;
36989;SDS011;22898;52.102;5.776;2023-05-21T13:28:00;4.03;;;2.85;;
36989;SDS011;22898;52.102;5.776;2023-05-21T13:30:27;6.75;;;2.50;;
36989;SDS011;22898;52.102;5.776;2023-05-21T13:32:52;4.93;;;3.30;;
36989;SDS011;22898;52.102;5.776;2023-05-21T13:35:18;4.82;;;3.20;;
36989;SDS011;22898;52.102;5.776;2023-05-21T13:37:44;5.55;;;2.92;;
36989;SDS011;22898;52.102;5.776;2023-05-21T13:40:11;7.35;;;3.03;;
36989;SDS011;22898;52.102;5.776;2023-05-21T13:42:40;5.45;;;3.78;;
36989;SDS011;22898;52.102;5.776;2023-05-21T13:45:07;6.18;;;3.35;;
36989;SDS011;22898;52.102;5.776;2023-05-21T13:47:35;6.28;;;3.40;;
36989;SDS011;22898;52.102;5.776;2023-05-21T13:50:01;4.43;;;3.33;;
36989;SDS011;22898;52.102;5.776;2023-05-21T13:52:27;4.15;;;2.72;;
36989;SDS011;22898;52.102;5.776;2023-05-21T13:54:53;4.65;;;3.17;;
36989;SDS011;22898;52.102;5.776;2023-05-21T13:57:18;6.78;;;3.75;;
36989;SDS011;22898;52.102;5.776;2023-05-21T13:59:44;8.10;;;3.72;;
36989;SDS011;22898;52.102;5.776;2023-05-21T14:02:10;7.38;;;3.80;;
36989;SDS011;22898;52.102;5.776;2023-05-21T14:04:36;5.05;;;2.97;;
36989;SDS011;22898;52.102;5.776;2023-05-21T14:07:02;4.07;;;3.13;;
36989;SDS011;22898;52.102;5.776;2023-05-21T14:09:29;4.50;;;3.08;;
36989;SDS011;22898;52.102;5.776;2023-05-21T14:11:55;5.40;;;3.92;;
36989;SDS011;22898;52.102;5.776;2023-05-21T14:14:22;5.20;;;3.05;;
36989;SDS011;22898;52.102;5.776;2023-05-21T14:16:48;5.53;;;3.15;;
36989;SDS011;22898;52.102;5.776;2023-05-21T14:19:14;4.30;;;2.33;;
36989;SDS011;22898;52.102;5.776;2023-05-21T14:21:40;7.25;;;2.80;;
36989;SDS011;22898;52.102;5.776;2023-05-21T14:24:06;3.42;;;2.08;;
36989;SDS011;22898;52.102;5.776;2023-05-21T14:26:32;5.43;;;2.97;;
36989;SDS011;22898;52.102;5.776;2023-05-21T14:28:57;4.88;;;3.35;;
36989;SDS011;22898;52.102;5.776;2023-05-21T14:31:23;5.28;;;3.60;;
36989;SDS011;22898;52.102;5.776;2023-05-21T14:33:49;4.53;;;2.72;;
36989;SDS011;22898;52.102;5.776;2023-05-21T14:36:15;6.57;;;3.97;;
36989;SDS011;22898;52.102;5.776;2023-05-21T14:38:40;5.07;;;3.65;;
36989;SDS011;22898;52.102;5.776;2023-05-21T14:41:06;8.38;;;4.50;;
36989;SDS011;22898;52.102;5.776;2023-05-21T14:43:32;5.88;;;3.67;;
36989;SDS011;22898;52.102;5.776;2023-05-21T14:45:58;4.30;;;3.30;;
36989;SDS011;22898;52.102;5.776;2023-05-21T14:48:23;5.50;;;3.75;;
36989;SDS011;22898;52.102;5.776;2023-05-21T14:50:49;5.90;;;3.67;;
36989;SDS011;22898;52.102;5.776;2023-05-21T14:53:15;6.13;;;3.70;;
36989;SDS011;22898;52.102;5.776;2023-05-21T14:55:41;5.80;;;3.72;;